<?xml version="1.0" encoding="UTF-8" standalone="no" ?>
<gpx xmlns="http://www.topografix.com/GPX/1/1" xmlns:xsi="http://www.w3.org/2001/XMLSchema-instance" xsi:schemaLocation="http://www.topografix.com/GPX/1/1 http://www.topografix.com/GPX/1/1/gpx.xsd" version="1.1" creator="VisuGPX - https://www.visugpx.com">
  <metadata>
    <name>Chapelle St Sauveur depuis Salérans</name>
  </metadata>
  <trk>
    <name><![CDATA[Chapelle St Sauveur depuis Salérans_1]]></name>
    <extensions>
      <line xmlns="http://www.topografix.com/GPX/gpx_style/0/2">
        <color>0000FF</color>
        <width>4</width>
          <extensions>
            <sens>1</sens>
          </extensions>
      </line>
    </extensions>
    <trkseg>
      <trkpt lat="44.2429" lon="5.70639">
        <ele>703.5</ele>
        <time>2024-04-21T14:21:19Z</time>
      </trkpt>
      <trkpt lat="44.24286" lon="5.70642">
        <ele>704.6</ele>
        <time>2024-04-21T14:21:15Z</time>
      </trkpt>
      <trkpt lat="44.24284" lon="5.70645">
        <ele>705.3</ele>
        <time>2024-04-21T14:21:10Z</time>
      </trkpt>
      <trkpt lat="44.2428" lon="5.70648">
        <ele>706.6</ele>
        <time>2024-04-21T14:21:07Z</time>
      </trkpt>
      <trkpt lat="44.24278" lon="5.70652">
        <ele>707.4</ele>
        <time>2024-04-21T14:21:05Z</time>
      </trkpt>
      <trkpt lat="44.24274" lon="5.70657">
        <ele>708.7</ele>
        <time>2024-04-21T14:21:01Z</time>
      </trkpt>
      <trkpt lat="44.24272" lon="5.70658">
        <ele>709.2</ele>
        <time>2024-04-21T14:20:53Z</time>
      </trkpt>
      <trkpt lat="44.24267" lon="5.70665">
        <ele>710.7</ele>
        <time>2024-04-21T14:20:46Z</time>
      </trkpt>
      <trkpt lat="44.24264" lon="5.70668">
        <ele>711.6</ele>
        <time>2024-04-21T14:20:43Z</time>
      </trkpt>
      <trkpt lat="44.24262" lon="5.70671">
        <ele>712.3</ele>
        <time>2024-04-21T14:20:39Z</time>
      </trkpt>
      <trkpt lat="44.2425" lon="5.70692">
        <ele>717.7</ele>
        <time>2024-04-21T14:20:08Z</time>
      </trkpt>
      <trkpt lat="44.24244" lon="5.70694">
        <ele>719</ele>
        <time>2024-04-21T14:19:54Z</time>
      </trkpt>
      <trkpt lat="44.24244" lon="5.70699">
        <ele>719.8</ele>
        <time>2024-04-21T14:19:49Z</time>
      </trkpt>
      <trkpt lat="44.24245" lon="5.70703">
        <ele>720.2</ele>
        <time>2024-04-21T14:19:43Z</time>
      </trkpt>
      <trkpt lat="44.24241" lon="5.70716">
        <ele>723.2</ele>
        <time>2024-04-21T14:19:32Z</time>
      </trkpt>
      <trkpt lat="44.24239" lon="5.70721">
        <ele>724.6</ele>
        <time>2024-04-21T14:19:29Z</time>
      </trkpt>
      <trkpt lat="44.24237" lon="5.70724">
        <ele>725.5</ele>
        <time>2024-04-21T14:19:24Z</time>
      </trkpt>
      <trkpt lat="44.24235" lon="5.70728">
        <ele>726.6</ele>
        <time>2024-04-21T14:19:18Z</time>
      </trkpt>
      <trkpt lat="44.24233" lon="5.70731">
        <ele>727.7</ele>
        <time>2024-04-21T14:19:11Z</time>
      </trkpt>
      <trkpt lat="44.24232" lon="5.70741">
        <ele>729.6</ele>
        <time>2024-04-21T14:18:56Z</time>
      </trkpt>
      <trkpt lat="44.2423" lon="5.70744">
        <ele>730.9</ele>
        <time>2024-04-21T14:18:51Z</time>
      </trkpt>
      <trkpt lat="44.24224" lon="5.7075">
        <ele>734.3</ele>
        <time>2024-04-21T14:18:41Z</time>
      </trkpt>
      <trkpt lat="44.24222" lon="5.70756">
        <ele>735.7</ele>
        <time>2024-04-21T14:18:25Z</time>
      </trkpt>
      <trkpt lat="44.2422" lon="5.70758">
        <ele>736.4</ele>
        <time>2024-04-21T14:18:21Z</time>
      </trkpt>
      <trkpt lat="44.24219" lon="5.70763">
        <ele>737.2</ele>
        <time>2024-04-21T14:18:18Z</time>
      </trkpt>
      <trkpt lat="44.24218" lon="5.70766">
        <ele>737.8</ele>
        <time>2024-04-21T14:18:13Z</time>
      </trkpt>
      <trkpt lat="44.24215" lon="5.70769">
        <ele>739</ele>
        <time>2024-04-21T14:18:01Z</time>
      </trkpt>
      <trkpt lat="44.24213" lon="5.70773">
        <ele>740</ele>
        <time>2024-04-21T14:17:57Z</time>
      </trkpt>
      <trkpt lat="44.24212" lon="5.70778">
        <ele>741</ele>
        <time>2024-04-21T14:17:53Z</time>
      </trkpt>
      <trkpt lat="44.24208" lon="5.70785">
        <ele>742.6</ele>
        <time>2024-04-21T14:17:45Z</time>
      </trkpt>
      <trkpt lat="44.24206" lon="5.70789">
        <ele>743.5</ele>
        <time>2024-04-21T14:17:41Z</time>
      </trkpt>
      <trkpt lat="44.24205" lon="5.70793">
        <ele>744.2</ele>
        <time>2024-04-21T14:17:37Z</time>
      </trkpt>
      <trkpt lat="44.24205" lon="5.70798">
        <ele>744.6</ele>
        <time>2024-04-21T14:17:34Z</time>
      </trkpt>
      <trkpt lat="44.24199" lon="5.70828">
        <ele>748.3</ele>
        <time>2024-04-21T14:17:12Z</time>
      </trkpt>
      <trkpt lat="44.24196" lon="5.70838">
        <ele>749.9</ele>
        <time>2024-04-21T14:17:04Z</time>
      </trkpt>
      <trkpt lat="44.24195" lon="5.70842">
        <ele>750.5</ele>
        <time>2024-04-21T14:17:00Z</time>
      </trkpt>
      <trkpt lat="44.24194" lon="5.70846">
        <ele>751</ele>
        <time>2024-04-21T14:16:56Z</time>
      </trkpt>
      <trkpt lat="44.24193" lon="5.70851">
        <ele>751.6</ele>
        <time>2024-04-21T14:16:53Z</time>
      </trkpt>
      <trkpt lat="44.24193" lon="5.70856">
        <ele>752</ele>
        <time>2024-04-21T14:16:50Z</time>
      </trkpt>
      <trkpt lat="44.24191" lon="5.7086">
        <ele>752.7</ele>
        <time>2024-04-21T14:16:47Z</time>
      </trkpt>
      <trkpt lat="44.24189" lon="5.70865">
        <ele>753.5</ele>
        <time>2024-04-21T14:16:44Z</time>
      </trkpt>
      <trkpt lat="44.24186" lon="5.70876">
        <ele>755.1</ele>
        <time>2024-04-21T14:16:35Z</time>
      </trkpt>
      <trkpt lat="44.24177" lon="5.70904">
        <ele>758.7</ele>
        <time>2024-04-21T14:16:17Z</time>
      </trkpt>
      <trkpt lat="44.24177" lon="5.70909">
        <ele>759</ele>
        <time>2024-04-21T14:16:14Z</time>
      </trkpt>
      <trkpt lat="44.24176" lon="5.70922">
        <ele>760.1</ele>
        <time>2024-04-21T14:16:03Z</time>
      </trkpt>
      <trkpt lat="44.24176" lon="5.70927">
        <ele>760.5</ele>
        <time>2024-04-21T14:16:00Z</time>
      </trkpt>
      <trkpt lat="44.24174" lon="5.70941">
        <ele>761.7</ele>
        <time>2024-04-21T14:15:51Z</time>
      </trkpt>
      <trkpt lat="44.24172" lon="5.7096">
        <ele>763.5</ele>
        <time>2024-04-21T14:15:38Z</time>
      </trkpt>
      <trkpt lat="44.24165" lon="5.71006">
        <ele>767.3</ele>
        <time>2024-04-21T14:15:07Z</time>
      </trkpt>
      <trkpt lat="44.24158" lon="5.71027">
        <ele>768.6</ele>
        <time>2024-04-21T14:14:52Z</time>
      </trkpt>
      <trkpt lat="44.24148" lon="5.71045">
        <ele>768.7</ele>
        <time>2024-04-21T14:14:38Z</time>
      </trkpt>
      <trkpt lat="44.2414" lon="5.71051">
        <ele>770.6</ele>
        <time>2024-04-21T14:14:27Z</time>
      </trkpt>
      <trkpt lat="44.24137" lon="5.71051">
        <ele>771</ele>
        <time>2024-04-21T14:14:23Z</time>
      </trkpt>
      <trkpt lat="44.24131" lon="5.71057">
        <ele>771.8</ele>
        <time>2024-04-21T14:14:17Z</time>
      </trkpt>
      <trkpt lat="44.24127" lon="5.71057">
        <ele>772.3</ele>
        <time>2024-04-21T14:14:14Z</time>
      </trkpt>
      <trkpt lat="44.24117" lon="5.71059">
        <ele>773.3</ele>
        <time>2024-04-21T14:14:05Z</time>
      </trkpt>
      <trkpt lat="44.24102" lon="5.71066">
        <ele>775.1</ele>
        <time>2024-04-21T14:13:48Z</time>
      </trkpt>
      <trkpt lat="44.24099" lon="5.71068">
        <ele>775.5</ele>
        <time>2024-04-21T14:13:45Z</time>
      </trkpt>
      <trkpt lat="44.24086" lon="5.71074">
        <ele>777.3</ele>
        <time>2024-04-21T14:13:31Z</time>
      </trkpt>
      <trkpt lat="44.24082" lon="5.71077">
        <ele>778</ele>
        <time>2024-04-21T14:13:27Z</time>
      </trkpt>
      <trkpt lat="44.24071" lon="5.71082">
        <ele>779.7</ele>
        <time>2024-04-21T14:13:17Z</time>
      </trkpt>
      <trkpt lat="44.24064" lon="5.71082">
        <ele>780.7</ele>
        <time>2024-04-21T14:13:10Z</time>
      </trkpt>
      <trkpt lat="44.2406" lon="5.71082">
        <ele>781.3</ele>
        <time>2024-04-21T14:13:06Z</time>
      </trkpt>
      <trkpt lat="44.24047" lon="5.71085">
        <ele>783.2</ele>
        <time>2024-04-21T14:12:55Z</time>
      </trkpt>
      <trkpt lat="44.24013" lon="5.7109">
        <ele>788.7</ele>
        <time>2024-04-21T14:12:25Z</time>
      </trkpt>
      <trkpt lat="44.24009" lon="5.71092">
        <ele>789.4</ele>
        <time>2024-04-21T14:12:21Z</time>
      </trkpt>
      <trkpt lat="44.24" lon="5.71094">
        <ele>791</ele>
        <time>2024-04-21T14:12:10Z</time>
      </trkpt>
      <trkpt lat="44.23994" lon="5.71098">
        <ele>792</ele>
        <time>2024-04-21T14:12:04Z</time>
      </trkpt>
      <trkpt lat="44.23986" lon="5.711">
        <ele>793.3</ele>
        <time>2024-04-21T14:11:54Z</time>
      </trkpt>
      <trkpt lat="44.23974" lon="5.71099">
        <ele>795.3</ele>
        <time>2024-04-21T14:11:42Z</time>
      </trkpt>
      <trkpt lat="44.23963" lon="5.71106">
        <ele>797.5</ele>
        <time>2024-04-21T14:11:32Z</time>
      </trkpt>
      <trkpt lat="44.23951" lon="5.71115">
        <ele>799.8</ele>
        <time>2024-04-21T14:11:20Z</time>
      </trkpt>
      <trkpt lat="44.23944" lon="5.7112">
        <ele>801.1</ele>
        <time>2024-04-21T14:11:12Z</time>
      </trkpt>
      <trkpt lat="44.23935" lon="5.71123">
        <ele>802.7</ele>
        <time>2024-04-21T14:10:58Z</time>
      </trkpt>
      <trkpt lat="44.23931" lon="5.71122">
        <ele>803.4</ele>
        <time>2024-04-21T14:10:52Z</time>
      </trkpt>
      <trkpt lat="44.23922" lon="5.7113">
        <ele>805</ele>
        <time>2024-04-21T14:10:43Z</time>
      </trkpt>
      <trkpt lat="44.23919" lon="5.71132">
        <ele>805.6</ele>
        <time>2024-04-21T14:10:37Z</time>
      </trkpt>
      <trkpt lat="44.23912" lon="5.71148">
        <ele>807.1</ele>
        <time>2024-04-21T14:10:20Z</time>
      </trkpt>
      <trkpt lat="44.23904" lon="5.71158">
        <ele>809.1</ele>
        <time>2024-04-21T14:10:11Z</time>
      </trkpt>
      <trkpt lat="44.23896" lon="5.71181">
        <ele>812.4</ele>
        <time>2024-04-21T14:09:55Z</time>
      </trkpt>
      <trkpt lat="44.23897" lon="5.712">
        <ele>813.8</ele>
        <time>2024-04-21T14:09:43Z</time>
      </trkpt>
      <trkpt lat="44.23897" lon="5.71214">
        <ele>815.8</ele>
        <time>2024-04-21T14:09:34Z</time>
      </trkpt>
      <trkpt lat="44.239" lon="5.71221">
        <ele>816</ele>
        <time>2024-04-21T14:09:26Z</time>
      </trkpt>
      <trkpt lat="44.23904" lon="5.71228">
        <ele>815.9</ele>
        <time>2024-04-21T14:09:20Z</time>
      </trkpt>
      <trkpt lat="44.23909" lon="5.71236">
        <ele>815.8</ele>
        <time>2024-04-21T14:09:13Z</time>
      </trkpt>
      <trkpt lat="44.23911" lon="5.71239">
        <ele>815.7</ele>
        <time>2024-04-21T14:09:10Z</time>
      </trkpt>
      <trkpt lat="44.23914" lon="5.71257">
        <ele>817.3</ele>
        <time>2024-04-21T14:08:58Z</time>
      </trkpt>
      <trkpt lat="44.23914" lon="5.71261">
        <ele>817.8</ele>
        <time>2024-04-21T14:08:55Z</time>
      </trkpt>
      <trkpt lat="44.23911" lon="5.7127">
        <ele>819.4</ele>
        <time>2024-04-21T14:08:48Z</time>
      </trkpt>
      <trkpt lat="44.23903" lon="5.71279">
        <ele>822.1</ele>
        <time>2024-04-21T14:08:35Z</time>
      </trkpt>
      <trkpt lat="44.23901" lon="5.71283">
        <ele>822.8</ele>
        <time>2024-04-21T14:08:32Z</time>
      </trkpt>
      <trkpt lat="44.23894" lon="5.71293">
        <ele>825.1</ele>
        <time>2024-04-21T14:08:20Z</time>
      </trkpt>
      <trkpt lat="44.23892" lon="5.71304">
        <ele>826.3</ele>
        <time>2024-04-21T14:08:14Z</time>
      </trkpt>
      <trkpt lat="44.2388" lon="5.71342">
        <ele>831.5</ele>
        <time>2024-04-21T14:07:44Z</time>
      </trkpt>
      <trkpt lat="44.23873" lon="5.71359">
        <ele>834</ele>
        <time>2024-04-21T14:07:29Z</time>
      </trkpt>
      <trkpt lat="44.23872" lon="5.71363">
        <ele>834.4</ele>
        <time>2024-04-21T14:07:24Z</time>
      </trkpt>
      <trkpt lat="44.2387" lon="5.71366">
        <ele>834.8</ele>
        <time>2024-04-21T14:07:21Z</time>
      </trkpt>
      <trkpt lat="44.23867" lon="5.71375">
        <ele>835.7</ele>
        <time>2024-04-21T14:07:14Z</time>
      </trkpt>
      <trkpt lat="44.23865" lon="5.71379">
        <ele>836.1</ele>
        <time>2024-04-21T14:07:11Z</time>
      </trkpt>
      <trkpt lat="44.23863" lon="5.71394">
        <ele>837.3</ele>
        <time>2024-04-21T14:07:01Z</time>
      </trkpt>
      <trkpt lat="44.23863" lon="5.71417">
        <ele>839</ele>
        <time>2024-04-21T14:06:46Z</time>
      </trkpt>
      <trkpt lat="44.23862" lon="5.71426">
        <ele>839.6</ele>
        <time>2024-04-21T14:06:41Z</time>
      </trkpt>
      <trkpt lat="44.23856" lon="5.71442">
        <ele>841.4</ele>
        <time>2024-04-21T14:06:29Z</time>
      </trkpt>
      <trkpt lat="44.2385" lon="5.71474">
        <ele>843.9</ele>
        <time>2024-04-21T14:06:09Z</time>
      </trkpt>
      <trkpt lat="44.23846" lon="5.71496">
        <ele>845.8</ele>
        <time>2024-04-21T14:05:54Z</time>
      </trkpt>
      <trkpt lat="44.23836" lon="5.71513">
        <ele>847.7</ele>
        <time>2024-04-21T14:05:37Z</time>
      </trkpt>
      <trkpt lat="44.23834" lon="5.71522">
        <ele>848.5</ele>
        <time>2024-04-21T14:05:30Z</time>
      </trkpt>
      <trkpt lat="44.23832" lon="5.71526">
        <ele>849.1</ele>
        <time>2024-04-21T14:05:27Z</time>
      </trkpt>
      <trkpt lat="44.2383" lon="5.71531">
        <ele>849.8</ele>
        <time>2024-04-21T14:05:24Z</time>
      </trkpt>
      <trkpt lat="44.23823" lon="5.71547">
        <ele>852</ele>
        <time>2024-04-21T14:05:10Z</time>
      </trkpt>
      <trkpt lat="44.23822" lon="5.71551">
        <ele>852.5</ele>
        <time>2024-04-21T14:05:07Z</time>
      </trkpt>
      <trkpt lat="44.23822" lon="5.71571">
        <ele>854.5</ele>
        <time>2024-04-21T14:04:54Z</time>
      </trkpt>
      <trkpt lat="44.23816" lon="5.71594">
        <ele>857.3</ele>
        <time>2024-04-21T14:04:36Z</time>
      </trkpt>
      <trkpt lat="44.23817" lon="5.71612">
        <ele>858.9</ele>
        <time>2024-04-21T14:04:22Z</time>
      </trkpt>
      <trkpt lat="44.23818" lon="5.71616">
        <ele>859.2</ele>
        <time>2024-04-21T14:04:19Z</time>
      </trkpt>
      <trkpt lat="44.23818" lon="5.7162">
        <ele>859.6</ele>
        <time>2024-04-21T14:04:17Z</time>
      </trkpt>
      <trkpt lat="44.2382" lon="5.71664">
        <ele>862.8</ele>
        <time>2024-04-21T14:03:53Z</time>
      </trkpt>
      <trkpt lat="44.23817" lon="5.71676">
        <ele>863.8</ele>
        <time>2024-04-21T14:03:45Z</time>
      </trkpt>
      <trkpt lat="44.23808" lon="5.7169">
        <ele>865.5</ele>
        <time>2024-04-21T14:03:32Z</time>
      </trkpt>
      <trkpt lat="44.23802" lon="5.71711">
        <ele>867.3</ele>
        <time>2024-04-21T14:03:19Z</time>
      </trkpt>
      <trkpt lat="44.238" lon="5.71713">
        <ele>867.8</ele>
        <time>2024-04-21T14:03:16Z</time>
      </trkpt>
      <trkpt lat="44.23795" lon="5.7172">
        <ele>869.2</ele>
        <time>2024-04-21T14:03:07Z</time>
      </trkpt>
      <trkpt lat="44.23791" lon="5.71723">
        <ele>870.2</ele>
        <time>2024-04-21T14:03:03Z</time>
      </trkpt>
      <trkpt lat="44.23789" lon="5.7173">
        <ele>871.1</ele>
        <time>2024-04-21T14:02:57Z</time>
      </trkpt>
      <trkpt lat="44.23779" lon="5.71753">
        <ele>874.8</ele>
        <time>2024-04-21T14:02:39Z</time>
      </trkpt>
      <trkpt lat="44.23778" lon="5.71757">
        <ele>875.2</ele>
        <time>2024-04-21T14:02:35Z</time>
      </trkpt>
      <trkpt lat="44.23777" lon="5.71762">
        <ele>875.7</ele>
        <time>2024-04-21T14:02:31Z</time>
      </trkpt>
      <trkpt lat="44.23773" lon="5.71768">
        <ele>877.1</ele>
        <time>2024-04-21T14:02:22Z</time>
      </trkpt>
      <trkpt lat="44.23774" lon="5.71782">
        <ele>877.7</ele>
        <time>2024-04-21T14:02:12Z</time>
      </trkpt>
      <trkpt lat="44.23774" lon="5.71789">
        <ele>878.4</ele>
        <time>2024-04-21T14:02:07Z</time>
      </trkpt>
      <trkpt lat="44.23774" lon="5.71812">
        <ele>881.2</ele>
        <time>2024-04-21T14:01:52Z</time>
      </trkpt>
      <trkpt lat="44.23775" lon="5.71829">
        <ele>883.3</ele>
        <time>2024-04-21T14:01:40Z</time>
      </trkpt>
      <trkpt lat="44.23774" lon="5.7184">
        <ele>885</ele>
        <time>2024-04-21T14:01:31Z</time>
      </trkpt>
      <trkpt lat="44.23772" lon="5.71848">
        <ele>886.6</ele>
        <time>2024-04-21T14:01:24Z</time>
      </trkpt>
      <trkpt lat="44.23772" lon="5.71853">
        <ele>887.1</ele>
        <time>2024-04-21T14:01:21Z</time>
      </trkpt>
      <trkpt lat="44.23774" lon="5.71858">
        <ele>887</ele>
        <time>2024-04-21T14:01:18Z</time>
      </trkpt>
      <trkpt lat="44.23775" lon="5.71889">
        <ele>889.9</ele>
        <time>2024-04-21T14:00:57Z</time>
      </trkpt>
      <trkpt lat="44.23779" lon="5.71934">
        <ele>892</ele>
        <time>2024-04-21T14:00:26Z</time>
      </trkpt>
      <trkpt lat="44.23777" lon="5.71941">
        <ele>893</ele>
        <time>2024-04-21T14:00:20Z</time>
      </trkpt>
      <trkpt lat="44.23774" lon="5.71945">
        <ele>894.2</ele>
        <time>2024-04-21T14:00:14Z</time>
      </trkpt>
      <trkpt lat="44.2377" lon="5.71971">
        <ele>896.5</ele>
        <time>2024-04-21T13:59:59Z</time>
      </trkpt>
      <trkpt lat="44.23773" lon="5.71985">
        <ele>896.8</ele>
        <time>2024-04-21T13:59:50Z</time>
      </trkpt>
      <trkpt lat="44.23786" lon="5.72013">
        <ele>897.8</ele>
        <time>2024-04-21T13:59:25Z</time>
      </trkpt>
      <trkpt lat="44.23788" lon="5.72022">
        <ele>898.8</ele>
        <time>2024-04-21T13:59:19Z</time>
      </trkpt>
      <trkpt lat="44.23792" lon="5.72044">
        <ele>901.9</ele>
        <time>2024-04-21T13:59:00Z</time>
      </trkpt>
      <trkpt lat="44.23794" lon="5.72048">
        <ele>902.3</ele>
        <time>2024-04-21T13:58:57Z</time>
      </trkpt>
      <trkpt lat="44.23795" lon="5.72057">
        <ele>903.8</ele>
        <time>2024-04-21T13:58:51Z</time>
      </trkpt>
      <trkpt lat="44.23791" lon="5.7208">
        <ele>908</ele>
        <time>2024-04-21T13:58:35Z</time>
      </trkpt>
      <trkpt lat="44.23792" lon="5.72085">
        <ele>908.7</ele>
        <time>2024-04-21T13:58:30Z</time>
      </trkpt>
      <trkpt lat="44.23793" lon="5.72095">
        <ele>910</ele>
        <time>2024-04-21T13:58:23Z</time>
      </trkpt>
      <trkpt lat="44.23793" lon="5.72099">
        <ele>910.6</ele>
        <time>2024-04-21T13:58:20Z</time>
      </trkpt>
      <trkpt lat="44.23792" lon="5.72104">
        <ele>911.4</ele>
        <time>2024-04-21T13:58:17Z</time>
      </trkpt>
      <trkpt lat="44.23791" lon="5.72109">
        <ele>912.3</ele>
        <time>2024-04-21T13:58:14Z</time>
      </trkpt>
      <trkpt lat="44.2379" lon="5.72113">
        <ele>912.9</ele>
        <time>2024-04-21T13:58:11Z</time>
      </trkpt>
      <trkpt lat="44.23788" lon="5.72116">
        <ele>913.4</ele>
        <time>2024-04-21T13:58:08Z</time>
      </trkpt>
      <trkpt lat="44.23784" lon="5.72124">
        <ele>914.7</ele>
        <time>2024-04-21T13:58:01Z</time>
      </trkpt>
      <trkpt lat="44.23778" lon="5.72145">
        <ele>917.6</ele>
        <time>2024-04-21T13:57:45Z</time>
      </trkpt>
      <trkpt lat="44.23779" lon="5.72159">
        <ele>919</ele>
        <time>2024-04-21T13:57:37Z</time>
      </trkpt>
      <trkpt lat="44.23781" lon="5.72163">
        <ele>919.3</ele>
        <time>2024-04-21T13:57:34Z</time>
      </trkpt>
      <trkpt lat="44.23782" lon="5.72169">
        <ele>919.7</ele>
        <time>2024-04-21T13:57:31Z</time>
      </trkpt>
      <trkpt lat="44.23785" lon="5.72179">
        <ele>920.1</ele>
        <time>2024-04-21T13:57:24Z</time>
      </trkpt>
      <trkpt lat="44.23785" lon="5.72194">
        <ele>921.2</ele>
        <time>2024-04-21T13:57:15Z</time>
      </trkpt>
      <trkpt lat="44.23784" lon="5.722">
        <ele>921.9</ele>
        <time>2024-04-21T13:57:10Z</time>
      </trkpt>
      <trkpt lat="44.23788" lon="5.72209">
        <ele>922.3</ele>
        <time>2024-04-21T13:57:03Z</time>
      </trkpt>
      <trkpt lat="44.23788" lon="5.72227">
        <ele>923.8</ele>
        <time>2024-04-21T13:56:48Z</time>
      </trkpt>
      <trkpt lat="44.23788" lon="5.72251">
        <ele>925.2</ele>
        <time>2024-04-21T13:56:34Z</time>
      </trkpt>
      <trkpt lat="44.23785" lon="5.72261">
        <ele>926.4</ele>
        <time>2024-04-21T13:56:28Z</time>
      </trkpt>
      <trkpt lat="44.23783" lon="5.72287">
        <ele>928.5</ele>
        <time>2024-04-21T13:56:12Z</time>
      </trkpt>
      <trkpt lat="44.23784" lon="5.72292">
        <ele>928.7</ele>
        <time>2024-04-21T13:56:09Z</time>
      </trkpt>
      <trkpt lat="44.23786" lon="5.72302">
        <ele>929</ele>
        <time>2024-04-21T13:56:03Z</time>
      </trkpt>
      <trkpt lat="44.23794" lon="5.72331">
        <ele>930.8</ele>
        <time>2024-04-21T13:55:40Z</time>
      </trkpt>
      <trkpt lat="44.23798" lon="5.72338">
        <ele>931.4</ele>
        <time>2024-04-21T13:55:31Z</time>
      </trkpt>
      <trkpt lat="44.238" lon="5.72342">
        <ele>931.9</ele>
        <time>2024-04-21T13:55:27Z</time>
      </trkpt>
      <trkpt lat="44.23802" lon="5.7235">
        <ele>933.2</ele>
        <time>2024-04-21T13:55:20Z</time>
      </trkpt>
      <trkpt lat="44.23817" lon="5.72372">
        <ele>934.5</ele>
        <time>2024-04-21T13:54:53Z</time>
      </trkpt>
      <trkpt lat="44.23822" lon="5.72381">
        <ele>935</ele>
        <time>2024-04-21T13:54:47Z</time>
      </trkpt>
      <trkpt lat="44.23824" lon="5.72385">
        <ele>935.3</ele>
        <time>2024-04-21T13:54:44Z</time>
      </trkpt>
      <trkpt lat="44.23829" lon="5.72391">
        <ele>935.2</ele>
        <time>2024-04-21T13:54:38Z</time>
      </trkpt>
      <trkpt lat="44.23832" lon="5.72403">
        <ele>936.3</ele>
        <time>2024-04-21T13:54:29Z</time>
      </trkpt>
      <trkpt lat="44.23833" lon="5.72408">
        <ele>936.8</ele>
        <time>2024-04-21T13:54:24Z</time>
      </trkpt>
      <trkpt lat="44.23833" lon="5.72417">
        <ele>938.1</ele>
        <time>2024-04-21T13:54:18Z</time>
      </trkpt>
      <trkpt lat="44.23832" lon="5.72422">
        <ele>938.9</ele>
        <time>2024-04-21T13:54:15Z</time>
      </trkpt>
      <trkpt lat="44.2383" lon="5.72426">
        <ele>939.8</ele>
        <time>2024-04-21T13:54:11Z</time>
      </trkpt>
      <trkpt lat="44.23828" lon="5.72429">
        <ele>940.6</ele>
        <time>2024-04-21T13:54:06Z</time>
      </trkpt>
      <trkpt lat="44.23821" lon="5.72453">
        <ele>945</ele>
        <time>2024-04-21T13:53:51Z</time>
      </trkpt>
      <trkpt lat="44.23818" lon="5.72461">
        <ele>946.7</ele>
        <time>2024-04-21T13:53:45Z</time>
      </trkpt>
      <trkpt lat="44.23813" lon="5.72478">
        <ele>949.6</ele>
        <time>2024-04-21T13:53:27Z</time>
      </trkpt>
      <trkpt lat="44.23807" lon="5.72483">
        <ele>951.4</ele>
        <time>2024-04-21T13:53:19Z</time>
      </trkpt>
      <trkpt lat="44.23804" lon="5.72498">
        <ele>953.3</ele>
        <time>2024-04-21T13:53:09Z</time>
      </trkpt>
      <trkpt lat="44.23802" lon="5.72503">
        <ele>954.3</ele>
        <time>2024-04-21T13:53:05Z</time>
      </trkpt>
      <trkpt lat="44.238" lon="5.72515">
        <ele>955.8</ele>
        <time>2024-04-21T13:52:55Z</time>
      </trkpt>
      <trkpt lat="44.23797" lon="5.72517">
        <ele>956.9</ele>
        <time>2024-04-21T13:52:49Z</time>
      </trkpt>
      <trkpt lat="44.23796" lon="5.72521">
        <ele>957.5</ele>
        <time>2024-04-21T13:52:45Z</time>
      </trkpt>
      <trkpt lat="44.23794" lon="5.72527">
        <ele>958.7</ele>
        <time>2024-04-21T13:52:39Z</time>
      </trkpt>
      <trkpt lat="44.23794" lon="5.72541">
        <ele>959.7</ele>
        <time>2024-04-21T13:52:27Z</time>
      </trkpt>
      <trkpt lat="44.23794" lon="5.72546">
        <ele>960.1</ele>
        <time>2024-04-21T13:52:23Z</time>
      </trkpt>
      <trkpt lat="44.23791" lon="5.72558">
        <ele>962</ele>
        <time>2024-04-21T13:52:11Z</time>
      </trkpt>
      <trkpt lat="44.23792" lon="5.72562">
        <ele>962.2</ele>
        <time>2024-04-21T13:52:08Z</time>
      </trkpt>
      <trkpt lat="44.2379" lon="5.72572">
        <ele>964.1</ele>
        <time>2024-04-21T13:51:59Z</time>
      </trkpt>
      <trkpt lat="44.23784" lon="5.72586">
        <ele>968.1</ele>
        <time>2024-04-21T13:51:46Z</time>
      </trkpt>
      <trkpt lat="44.23784" lon="5.72597">
        <ele>969.7</ele>
        <time>2024-04-21T13:51:38Z</time>
      </trkpt>
      <trkpt lat="44.23785" lon="5.72603">
        <ele>970.2</ele>
        <time>2024-04-21T13:51:31Z</time>
      </trkpt>
      <trkpt lat="44.23785" lon="5.72614">
        <ele>971.8</ele>
        <time>2024-04-21T13:51:24Z</time>
      </trkpt>
      <trkpt lat="44.23785" lon="5.72628">
        <ele>973.7</ele>
        <time>2024-04-21T13:51:10Z</time>
      </trkpt>
      <trkpt lat="44.23785" lon="5.72634">
        <ele>974.5</ele>
        <time>2024-04-21T13:51:03Z</time>
      </trkpt>
      <trkpt lat="44.23785" lon="5.72639">
        <ele>975.2</ele>
        <time>2024-04-21T13:50:58Z</time>
      </trkpt>
      <trkpt lat="44.23784" lon="5.72643">
        <ele>976</ele>
        <time>2024-04-21T13:50:54Z</time>
      </trkpt>
      <trkpt lat="44.23782" lon="5.72647">
        <ele>977.2</ele>
        <time>2024-04-21T13:50:50Z</time>
      </trkpt>
      <trkpt lat="44.2378" lon="5.72653">
        <ele>978.7</ele>
        <time>2024-04-21T13:50:46Z</time>
      </trkpt>
      <trkpt lat="44.23779" lon="5.72659">
        <ele>979.7</ele>
        <time>2024-04-21T13:50:41Z</time>
      </trkpt>
      <trkpt lat="44.23777" lon="5.72662">
        <ele>980.8</ele>
        <time>2024-04-21T13:50:37Z</time>
      </trkpt>
      <trkpt lat="44.23777" lon="5.72668">
        <ele>981.5</ele>
        <time>2024-04-21T13:50:33Z</time>
      </trkpt>
      <trkpt lat="44.23776" lon="5.72672">
        <ele>982.3</ele>
        <time>2024-04-21T13:50:29Z</time>
      </trkpt>
      <trkpt lat="44.23775" lon="5.72675">
        <ele>983</ele>
        <time>2024-04-21T13:50:17Z</time>
      </trkpt>
      <trkpt lat="44.23772" lon="5.72678">
        <ele>984.4</ele>
        <time>2024-04-21T13:50:12Z</time>
      </trkpt>
      <trkpt lat="44.2377" lon="5.72683">
        <ele>985.7</ele>
        <time>2024-04-21T13:50:08Z</time>
      </trkpt>
      <trkpt lat="44.23769" lon="5.72692">
        <ele>986.9</ele>
        <time>2024-04-21T13:50:02Z</time>
      </trkpt>
      <trkpt lat="44.23768" lon="5.72696">
        <ele>987.7</ele>
        <time>2024-04-21T13:49:59Z</time>
      </trkpt>
      <trkpt lat="44.23766" lon="5.72702">
        <ele>989.1</ele>
        <time>2024-04-21T13:49:55Z</time>
      </trkpt>
      <trkpt lat="44.23763" lon="5.7273">
        <ele>993.4</ele>
        <time>2024-04-21T13:49:34Z</time>
      </trkpt>
      <trkpt lat="44.23764" lon="5.72735">
        <ele>993.8</ele>
        <time>2024-04-21T13:49:25Z</time>
      </trkpt>
      <trkpt lat="44.23767" lon="5.72741">
        <ele>993.7</ele>
        <time>2024-04-21T13:49:19Z</time>
      </trkpt>
      <trkpt lat="44.23776" lon="5.72745">
        <ele>991.6</ele>
        <time>2024-04-21T13:49:08Z</time>
      </trkpt>
      <trkpt lat="44.23783" lon="5.7276">
        <ele>993.2</ele>
        <time>2024-04-21T13:48:52Z</time>
      </trkpt>
      <trkpt lat="44.23792" lon="5.72765">
        <ele>992.2</ele>
        <time>2024-04-21T13:48:42Z</time>
      </trkpt>
      <trkpt lat="44.23795" lon="5.72765">
        <ele>991.4</ele>
        <time>2024-04-21T13:48:39Z</time>
      </trkpt>
      <trkpt lat="44.23798" lon="5.72768">
        <ele>991.4</ele>
        <time>2024-04-21T13:48:36Z</time>
      </trkpt>
      <trkpt lat="44.23803" lon="5.72778">
        <ele>992.7</ele>
        <time>2024-04-21T13:48:27Z</time>
      </trkpt>
      <trkpt lat="44.23802" lon="5.72785">
        <ele>994.4</ele>
        <time>2024-04-21T13:48:22Z</time>
      </trkpt>
      <trkpt lat="44.23785" lon="5.72815">
        <ele>1004.1</ele>
        <time>2024-04-21T13:47:54Z</time>
      </trkpt>
      <trkpt lat="44.23781" lon="5.72834">
        <ele>1008.4</ele>
        <time>2024-04-21T13:47:39Z</time>
      </trkpt>
      <trkpt lat="44.2378" lon="5.72839">
        <ele>1009.3</ele>
        <time>2024-04-21T13:47:35Z</time>
      </trkpt>
      <trkpt lat="44.23777" lon="5.72848">
        <ele>1011.3</ele>
        <time>2024-04-21T13:47:23Z</time>
      </trkpt>
      <trkpt lat="44.23772" lon="5.72878">
        <ele>1015.4</ele>
        <time>2024-04-21T13:46:59Z</time>
      </trkpt>
      <trkpt lat="44.23771" lon="5.72882">
        <ele>1015.9</ele>
        <time>2024-04-21T13:46:56Z</time>
      </trkpt>
      <trkpt lat="44.2377" lon="5.72888">
        <ele>1016.6</ele>
        <time>2024-04-21T13:46:50Z</time>
      </trkpt>
      <trkpt lat="44.23769" lon="5.72893">
        <ele>1017.2</ele>
        <time>2024-04-21T13:46:46Z</time>
      </trkpt>
      <trkpt lat="44.23768" lon="5.72902">
        <ele>1018.1</ele>
        <time>2024-04-21T13:46:38Z</time>
      </trkpt>
      <trkpt lat="44.23768" lon="5.72907">
        <ele>1018.4</ele>
        <time>2024-04-21T13:46:33Z</time>
      </trkpt>
      <trkpt lat="44.23767" lon="5.72911">
        <ele>1018.9</ele>
        <time>2024-04-21T13:46:29Z</time>
      </trkpt>
      <trkpt lat="44.23764" lon="5.72952">
        <ele>1023</ele>
        <time>2024-04-21T13:45:56Z</time>
      </trkpt>
      <trkpt lat="44.23764" lon="5.72961">
        <ele>1023.7</ele>
        <time>2024-04-21T13:45:50Z</time>
      </trkpt>
      <trkpt lat="44.23764" lon="5.72966">
        <ele>1024</ele>
        <time>2024-04-21T13:45:47Z</time>
      </trkpt>
      <trkpt lat="44.23763" lon="5.72971">
        <ele>1024.6</ele>
        <time>2024-04-21T13:45:43Z</time>
      </trkpt>
      <trkpt lat="44.23767" lon="5.73011">
        <ele>1027.7</ele>
        <time>2024-04-21T13:45:13Z</time>
      </trkpt>
      <trkpt lat="44.23767" lon="5.73016">
        <ele>1028.1</ele>
        <time>2024-04-21T13:45:10Z</time>
      </trkpt>
      <trkpt lat="44.23768" lon="5.73054">
        <ele>1030.7</ele>
        <time>2024-04-21T13:44:44Z</time>
      </trkpt>
      <trkpt lat="44.23778" lon="5.73084">
        <ele>1030</ele>
        <time>2024-04-21T13:44:21Z</time>
      </trkpt>
      <trkpt lat="44.23783" lon="5.73119">
        <ele>1031.1</ele>
        <time>2024-04-21T13:44:00Z</time>
      </trkpt>
      <trkpt lat="44.23783" lon="5.73129">
        <ele>1031.9</ele>
        <time>2024-04-21T13:43:53Z</time>
      </trkpt>
      <trkpt lat="44.23785" lon="5.73138">
        <ele>1032.1</ele>
        <time>2024-04-21T13:43:45Z</time>
      </trkpt>
      <trkpt lat="44.23785" lon="5.73164">
        <ele>1034</ele>
        <time>2024-04-21T13:43:27Z</time>
      </trkpt>
      <trkpt lat="44.2379" lon="5.73176">
        <ele>1033.6</ele>
        <time>2024-04-21T13:43:15Z</time>
      </trkpt>
      <trkpt lat="44.2381" lon="5.7319">
        <ele>1029.9</ele>
        <time>2024-04-21T13:42:48Z</time>
      </trkpt>
      <trkpt lat="44.2382" lon="5.73215">
        <ele>1030.6</ele>
        <time>2024-04-21T13:42:23Z</time>
      </trkpt>
      <trkpt lat="44.23823" lon="5.73219">
        <ele>1030.5</ele>
        <time>2024-04-21T13:42:20Z</time>
      </trkpt>
      <trkpt lat="44.23825" lon="5.73223">
        <ele>1030.6</ele>
        <time>2024-04-21T13:42:17Z</time>
      </trkpt>
      <trkpt lat="44.2383" lon="5.73234">
        <ele>1030.8</ele>
        <time>2024-04-21T13:42:09Z</time>
      </trkpt>
      <trkpt lat="44.23838" lon="5.7324">
        <ele>1030.2</ele>
        <time>2024-04-21T13:41:57Z</time>
      </trkpt>
      <trkpt lat="44.23844" lon="5.73241">
        <ele>1029.5</ele>
        <time>2024-04-21T13:41:50Z</time>
      </trkpt>
      <trkpt lat="44.23847" lon="5.73243">
        <ele>1029.3</ele>
        <time>2024-04-21T13:41:47Z</time>
      </trkpt>
      <trkpt lat="44.23854" lon="5.73252">
        <ele>1029.2</ele>
        <time>2024-04-21T13:41:38Z</time>
      </trkpt>
      <trkpt lat="44.23856" lon="5.73256">
        <ele>1029.4</ele>
        <time>2024-04-21T13:41:34Z</time>
      </trkpt>
      <trkpt lat="44.23865" lon="5.73263">
        <ele>1029</ele>
        <time>2024-04-21T13:41:25Z</time>
      </trkpt>
      <trkpt lat="44.23867" lon="5.73265">
        <ele>1029</ele>
        <time>2024-04-21T13:41:22Z</time>
      </trkpt>
      <trkpt lat="44.23875" lon="5.73274">
        <ele>1029.1</ele>
        <time>2024-04-21T13:41:14Z</time>
      </trkpt>
      <trkpt lat="44.23881" lon="5.73279">
        <ele>1029</ele>
        <time>2024-04-21T13:41:07Z</time>
      </trkpt>
      <trkpt lat="44.23886" lon="5.7328">
        <ele>1028.6</ele>
        <time>2024-04-21T13:41:03Z</time>
      </trkpt>
      <trkpt lat="44.23889" lon="5.73281">
        <ele>1028.5</ele>
        <time>2024-04-21T13:40:59Z</time>
      </trkpt>
      <trkpt lat="44.23894" lon="5.7328">
        <ele>1027.9</ele>
        <time>2024-04-21T13:40:53Z</time>
      </trkpt>
      <trkpt lat="44.23898" lon="5.7328">
        <ele>1027.6</ele>
        <time>2024-04-21T13:40:48Z</time>
      </trkpt>
      <trkpt lat="44.23901" lon="5.73278">
        <ele>1027.2</ele>
        <time>2024-04-21T13:40:45Z</time>
      </trkpt>
      <trkpt lat="44.23905" lon="5.73279">
        <ele>1027</ele>
        <time>2024-04-21T13:40:31Z</time>
      </trkpt>
      <trkpt lat="44.23907" lon="5.73282">
        <ele>1027.2</ele>
        <time>2024-04-21T13:40:27Z</time>
      </trkpt>
      <trkpt lat="44.23909" lon="5.73286">
        <ele>1027.5</ele>
        <time>2024-04-21T13:40:24Z</time>
      </trkpt>
      <trkpt lat="44.2391" lon="5.7329">
        <ele>1027.9</ele>
        <time>2024-04-21T13:40:21Z</time>
      </trkpt>
      <trkpt lat="44.23919" lon="5.73298">
        <ele>1028</ele>
        <time>2024-04-21T13:40:10Z</time>
      </trkpt>
      <trkpt lat="44.23923" lon="5.73301">
        <ele>1028.1</ele>
        <time>2024-04-21T13:40:05Z</time>
      </trkpt>
      <trkpt lat="44.23927" lon="5.73302">
        <ele>1027.9</ele>
        <time>2024-04-21T13:40:01Z</time>
      </trkpt>
      <trkpt lat="44.23938" lon="5.73297">
        <ele>1026.5</ele>
        <time>2024-04-21T13:39:49Z</time>
      </trkpt>
      <trkpt lat="44.23947" lon="5.73303">
        <ele>1026.5</ele>
        <time>2024-04-21T13:39:39Z</time>
      </trkpt>
      <trkpt lat="44.2395" lon="5.73304">
        <ele>1026.4</ele>
        <time>2024-04-21T13:39:37Z</time>
      </trkpt>
      <trkpt lat="44.23956" lon="5.73314">
        <ele>1026.8</ele>
        <time>2024-04-21T13:39:28Z</time>
      </trkpt>
      <trkpt lat="44.23963" lon="5.73319">
        <ele>1026.6</ele>
        <time>2024-04-21T13:39:19Z</time>
      </trkpt>
      <trkpt lat="44.23968" lon="5.73325">
        <ele>1026.7</ele>
        <time>2024-04-21T13:39:12Z</time>
      </trkpt>
      <trkpt lat="44.23969" lon="5.73344">
        <ele>1027.7</ele>
        <time>2024-04-21T13:39:00Z</time>
      </trkpt>
      <trkpt lat="44.23973" lon="5.73368">
        <ele>1028.4</ele>
        <time>2024-04-21T13:38:42Z</time>
      </trkpt>
      <trkpt lat="44.23975" lon="5.73377">
        <ele>1028.7</ele>
        <time>2024-04-21T13:38:35Z</time>
      </trkpt>
      <trkpt lat="44.23979" lon="5.73382">
        <ele>1028.3</ele>
        <time>2024-04-21T13:38:29Z</time>
      </trkpt>
      <trkpt lat="44.23981" lon="5.73389">
        <ele>1028.4</ele>
        <time>2024-04-21T13:38:23Z</time>
      </trkpt>
      <trkpt lat="44.23982" lon="5.73404">
        <ele>1028.8</ele>
        <time>2024-04-21T13:38:10Z</time>
      </trkpt>
      <trkpt lat="44.2399" lon="5.73414">
        <ele>1027.7</ele>
        <time>2024-04-21T13:38:01Z</time>
      </trkpt>
      <trkpt lat="44.23999" lon="5.73416">
        <ele>1026.2</ele>
        <time>2024-04-21T13:37:50Z</time>
      </trkpt>
      <trkpt lat="44.24003" lon="5.73418">
        <ele>1025.5</ele>
        <time>2024-04-21T13:37:42Z</time>
      </trkpt>
      <trkpt lat="44.24007" lon="5.73417">
        <ele>1024.7</ele>
        <time>2024-04-21T13:37:29Z</time>
      </trkpt>
      <trkpt lat="44.24009" lon="5.73421">
        <ele>1024.4</ele>
        <time>2024-04-21T13:37:20Z</time>
      </trkpt>
      <trkpt lat="44.24011" lon="5.73428">
        <ele>1024</ele>
        <time>2024-04-21T13:37:16Z</time>
      </trkpt>
      <trkpt lat="44.24013" lon="5.73434">
        <ele>1023.7</ele>
        <time>2024-04-21T13:36:50Z</time>
      </trkpt>
      <trkpt lat="44.24018" lon="5.7343">
        <ele>1022.8</ele>
        <time>2024-04-21T13:36:45Z</time>
      </trkpt>
      <trkpt lat="44.24022" lon="5.73426">
        <ele>1022</ele>
        <time>2024-04-21T13:36:40Z</time>
      </trkpt>
      <trkpt lat="44.24031" lon="5.73427">
        <ele>1020.3</ele>
        <time>2024-04-21T13:36:28Z</time>
      </trkpt>
      <trkpt lat="44.24035" lon="5.73428">
        <ele>1019.3</ele>
        <time>2024-04-21T13:36:01Z</time>
      </trkpt>
      <trkpt lat="44.24037" lon="5.73432">
        <ele>1018.8</ele>
        <time>2024-04-21T13:35:53Z</time>
      </trkpt>
      <trkpt lat="44.24038" lon="5.73437">
        <ele>1018.5</ele>
        <time>2024-04-21T13:35:48Z</time>
      </trkpt>
      <trkpt lat="44.24037" lon="5.73441">
        <ele>1018.7</ele>
        <time>2024-04-21T13:35:44Z</time>
      </trkpt>
      <trkpt lat="44.24038" lon="5.73448">
        <ele>1018.2</ele>
        <time>2024-04-21T13:35:37Z</time>
      </trkpt>
      <trkpt lat="44.24036" lon="5.73456">
        <ele>1018.1</ele>
        <time>2024-04-21T13:35:31Z</time>
      </trkpt>
      <trkpt lat="44.24036" lon="5.73463">
        <ele>1017.6</ele>
        <time>2024-04-21T13:35:23Z</time>
      </trkpt>
      <trkpt lat="44.24037" lon="5.73467">
        <ele>1017.1</ele>
        <time>2024-04-21T13:35:17Z</time>
      </trkpt>
      <trkpt lat="44.2404" lon="5.73472">
        <ele>1015.9</ele>
        <time>2024-04-21T13:35:03Z</time>
      </trkpt>
      <trkpt lat="44.24046" lon="5.73475">
        <ele>1014.2</ele>
        <time>2024-04-21T13:34:48Z</time>
      </trkpt>
      <trkpt lat="44.2405" lon="5.73477">
        <ele>1013.1</ele>
        <time>2024-04-21T13:34:36Z</time>
      </trkpt>
      <trkpt lat="44.24054" lon="5.73476">
        <ele>1012.1</ele>
        <time>2024-04-21T13:34:30Z</time>
      </trkpt>
      <trkpt lat="44.24063" lon="5.73483">
        <ele>1009</ele>
        <time>2024-04-21T13:34:06Z</time>
      </trkpt>
      <trkpt lat="44.24066" lon="5.7348">
        <ele>1008.3</ele>
        <time>2024-04-21T13:34:00Z</time>
      </trkpt>
      <trkpt lat="44.2407" lon="5.73479">
        <ele>1007.2</ele>
        <time>2024-04-21T13:33:54Z</time>
      </trkpt>
      <trkpt lat="44.24082" lon="5.73477">
        <ele>1003.9</ele>
        <time>2024-04-21T13:33:38Z</time>
      </trkpt>
      <trkpt lat="44.24088" lon="5.73474">
        <ele>1002.5</ele>
        <time>2024-04-21T13:33:30Z</time>
      </trkpt>
      <trkpt lat="44.24092" lon="5.73469">
        <ele>1001.9</ele>
        <time>2024-04-21T13:33:25Z</time>
      </trkpt>
      <trkpt lat="44.24106" lon="5.73439">
        <ele>1000.9</ele>
        <time>2024-04-21T13:32:55Z</time>
      </trkpt>
      <trkpt lat="44.24107" lon="5.73433">
        <ele>1001</ele>
        <time>2024-04-21T13:32:49Z</time>
      </trkpt>
      <trkpt lat="44.24106" lon="5.73424">
        <ele>1001.9</ele>
        <time>2024-04-21T13:32:44Z</time>
      </trkpt>
      <trkpt lat="44.24112" lon="5.73411">
        <ele>1000.7</ele>
        <time>2024-04-21T13:32:30Z</time>
      </trkpt>
      <trkpt lat="44.24113" lon="5.73408">
        <ele>1000.3</ele>
        <time>2024-04-21T13:32:26Z</time>
      </trkpt>
      <trkpt lat="44.24114" lon="5.73403">
        <ele>1000</ele>
        <time>2024-04-21T13:32:24Z</time>
      </trkpt>
      <trkpt lat="44.24117" lon="5.73391">
        <ele>999.1</ele>
        <time>2024-04-21T13:32:12Z</time>
      </trkpt>
      <trkpt lat="44.24117" lon="5.73386">
        <ele>999</ele>
        <time>2024-04-21T13:32:09Z</time>
      </trkpt>
      <trkpt lat="44.24117" lon="5.73382">
        <ele>998.9</ele>
        <time>2024-04-21T13:32:06Z</time>
      </trkpt>
      <trkpt lat="44.24119" lon="5.73374">
        <ele>998.1</ele>
        <time>2024-04-21T13:31:59Z</time>
      </trkpt>
      <trkpt lat="44.24122" lon="5.73371">
        <ele>997.1</ele>
        <time>2024-04-21T13:31:54Z</time>
      </trkpt>
      <trkpt lat="44.24124" lon="5.7337">
        <ele>996.5</ele>
        <time>2024-04-21T13:31:51Z</time>
      </trkpt>
      <trkpt lat="44.24127" lon="5.73365">
        <ele>995.5</ele>
        <time>2024-04-21T13:31:40Z</time>
      </trkpt>
      <trkpt lat="44.24131" lon="5.73365">
        <ele>994.3</ele>
        <time>2024-04-21T13:31:36Z</time>
      </trkpt>
      <trkpt lat="44.24134" lon="5.73365">
        <ele>993.4</ele>
        <time>2024-04-21T13:31:33Z</time>
      </trkpt>
      <trkpt lat="44.24138" lon="5.73366">
        <ele>992.3</ele>
        <time>2024-04-21T13:31:26Z</time>
      </trkpt>
      <trkpt lat="44.24143" lon="5.73368">
        <ele>990.7</ele>
        <time>2024-04-21T13:30:55Z</time>
      </trkpt>
      <trkpt lat="44.24144" lon="5.73374">
        <ele>990.3</ele>
        <time>2024-04-21T13:30:49Z</time>
      </trkpt>
      <trkpt lat="44.24146" lon="5.73379">
        <ele>989.7</ele>
        <time>2024-04-21T13:30:41Z</time>
      </trkpt>
      <trkpt lat="44.2415" lon="5.7338">
        <ele>988.4</ele>
        <time>2024-04-21T13:30:30Z</time>
      </trkpt>
      <trkpt lat="44.24155" lon="5.73386">
        <ele>986.8</ele>
        <time>2024-04-21T13:30:17Z</time>
      </trkpt>
      <trkpt lat="44.2416" lon="5.73387">
        <ele>985.2</ele>
        <time>2024-04-21T13:30:08Z</time>
      </trkpt>
      <trkpt lat="44.24168" lon="5.7338">
        <ele>982.6</ele>
        <time>2024-04-21T13:29:51Z</time>
      </trkpt>
      <trkpt lat="44.24172" lon="5.73377">
        <ele>981.5</ele>
        <time>2024-04-21T13:29:45Z</time>
      </trkpt>
      <trkpt lat="44.24177" lon="5.73371">
        <ele>980.3</ele>
        <time>2024-04-21T13:29:33Z</time>
      </trkpt>
      <trkpt lat="44.24181" lon="5.73369">
        <ele>979.2</ele>
        <time>2024-04-21T13:29:23Z</time>
      </trkpt>
      <trkpt lat="44.24185" lon="5.73368">
        <ele>978.2</ele>
        <time>2024-04-21T13:29:08Z</time>
      </trkpt>
      <trkpt lat="44.24192" lon="5.73372">
        <ele>976.3</ele>
        <time>2024-04-21T13:28:52Z</time>
      </trkpt>
      <trkpt lat="44.24195" lon="5.73373">
        <ele>975.5</ele>
        <time>2024-04-21T13:28:46Z</time>
      </trkpt>
      <trkpt lat="44.24198" lon="5.73375">
        <ele>974.9</ele>
        <time>2024-04-21T13:28:40Z</time>
      </trkpt>
      <trkpt lat="44.24206" lon="5.73378">
        <ele>973.4</ele>
        <time>2024-04-21T13:28:22Z</time>
      </trkpt>
      <trkpt lat="44.24208" lon="5.73377">
        <ele>973.1</ele>
        <time>2024-04-21T13:27:59Z</time>
      </trkpt>
      <trkpt lat="44.24212" lon="5.73376">
        <ele>972.6</ele>
        <time>2024-04-21T13:27:54Z</time>
      </trkpt>
      <trkpt lat="44.24214" lon="5.73378">
        <ele>972</ele>
        <time>2024-04-21T13:27:49Z</time>
      </trkpt>
      <trkpt lat="44.24218" lon="5.73376">
        <ele>971.6</ele>
        <time>2024-04-21T13:27:42Z</time>
      </trkpt>
      <trkpt lat="44.24222" lon="5.73372">
        <ele>971.5</ele>
        <time>2024-04-21T13:27:37Z</time>
      </trkpt>
      <trkpt lat="44.24238" lon="5.73367">
        <ele>970</ele>
        <time>2024-04-21T13:27:16Z</time>
      </trkpt>
      <trkpt lat="44.24247" lon="5.73366">
        <ele>968.9</ele>
        <time>2024-04-21T13:27:03Z</time>
      </trkpt>
      <trkpt lat="44.24252" lon="5.73365">
        <ele>968.1</ele>
        <time>2024-04-21T13:26:57Z</time>
      </trkpt>
      <trkpt lat="44.24257" lon="5.73365">
        <ele>967.1</ele>
        <time>2024-04-21T13:26:51Z</time>
      </trkpt>
      <trkpt lat="44.24262" lon="5.73368">
        <ele>965.7</ele>
        <time>2024-04-21T13:26:48Z</time>
      </trkpt>
      <trkpt lat="44.24267" lon="5.73369">
        <ele>964.5</ele>
        <time>2024-04-21T13:26:41Z</time>
      </trkpt>
      <trkpt lat="44.24272" lon="5.7337">
        <ele>963.3</ele>
        <time>2024-04-21T13:26:35Z</time>
      </trkpt>
      <trkpt lat="44.24277" lon="5.7337">
        <ele>962.2</ele>
        <time>2024-04-21T13:26:25Z</time>
      </trkpt>
      <trkpt lat="44.24282" lon="5.73372">
        <ele>960.9</ele>
        <time>2024-04-21T13:26:19Z</time>
      </trkpt>
      <trkpt lat="44.24287" lon="5.73371">
        <ele>959.9</ele>
        <time>2024-04-21T13:26:11Z</time>
      </trkpt>
      <trkpt lat="44.24291" lon="5.73376">
        <ele>958.5</ele>
        <time>2024-04-21T13:26:03Z</time>
      </trkpt>
      <trkpt lat="44.24295" lon="5.73377">
        <ele>957.6</ele>
        <time>2024-04-21T13:25:55Z</time>
      </trkpt>
      <trkpt lat="44.24299" lon="5.73378">
        <ele>956.6</ele>
        <time>2024-04-21T13:25:49Z</time>
      </trkpt>
      <trkpt lat="44.24303" lon="5.73378">
        <ele>955.7</ele>
        <time>2024-04-21T13:25:45Z</time>
      </trkpt>
      <trkpt lat="44.24308" lon="5.7338">
        <ele>954.3</ele>
        <time>2024-04-21T13:25:36Z</time>
      </trkpt>
      <trkpt lat="44.24314" lon="5.7338">
        <ele>952.5</ele>
        <time>2024-04-21T13:25:27Z</time>
      </trkpt>
      <trkpt lat="44.24326" lon="5.73377">
        <ele>949.4</ele>
        <time>2024-04-21T13:24:55Z</time>
      </trkpt>
      <trkpt lat="44.2433" lon="5.73375">
        <ele>948.5</ele>
        <time>2024-04-21T13:24:43Z</time>
      </trkpt>
      <trkpt lat="44.24333" lon="5.7337">
        <ele>948.1</ele>
        <time>2024-04-21T13:24:36Z</time>
      </trkpt>
      <trkpt lat="44.24344" lon="5.73352">
        <ele>945.9</ele>
        <time>2024-04-21T13:24:18Z</time>
      </trkpt>
      <trkpt lat="44.24346" lon="5.73345">
        <ele>945.3</ele>
        <time>2024-04-21T13:24:13Z</time>
      </trkpt>
      <trkpt lat="44.24352" lon="5.73327">
        <ele>943.6</ele>
        <time>2024-04-21T13:23:55Z</time>
      </trkpt>
      <trkpt lat="44.24355" lon="5.73323">
        <ele>942.8</ele>
        <time>2024-04-21T13:23:43Z</time>
      </trkpt>
      <trkpt lat="44.2437" lon="5.73298">
        <ele>939.4</ele>
        <time>2024-04-21T13:23:12Z</time>
      </trkpt>
      <trkpt lat="44.24372" lon="5.73292">
        <ele>939</ele>
        <time>2024-04-21T13:23:05Z</time>
      </trkpt>
      <trkpt lat="44.24375" lon="5.73289">
        <ele>938.7</ele>
        <time>2024-04-21T13:23:01Z</time>
      </trkpt>
      <trkpt lat="44.24382" lon="5.73267">
        <ele>937.1</ele>
        <time>2024-04-21T13:22:34Z</time>
      </trkpt>
      <trkpt lat="44.2438" lon="5.73261">
        <ele>936.5</ele>
        <time>2024-04-21T13:22:30Z</time>
      </trkpt>
      <trkpt lat="44.24379" lon="5.73254">
        <ele>935.8</ele>
        <time>2024-04-21T13:22:22Z</time>
      </trkpt>
      <trkpt lat="44.24376" lon="5.73243">
        <ele>934.7</ele>
        <time>2024-04-21T13:22:14Z</time>
      </trkpt>
      <trkpt lat="44.24377" lon="5.73239">
        <ele>934.2</ele>
        <time>2024-04-21T13:22:09Z</time>
      </trkpt>
      <trkpt lat="44.24378" lon="5.73235">
        <ele>933.8</ele>
        <time>2024-04-21T13:22:05Z</time>
      </trkpt>
      <trkpt lat="44.24388" lon="5.73214">
        <ele>930.9</ele>
        <time>2024-04-21T13:21:39Z</time>
      </trkpt>
      <trkpt lat="44.24393" lon="5.73207">
        <ele>929.9</ele>
        <time>2024-04-21T13:21:32Z</time>
      </trkpt>
      <trkpt lat="44.24396" lon="5.73206">
        <ele>929.8</ele>
        <time>2024-04-21T13:21:28Z</time>
      </trkpt>
      <trkpt lat="44.24406" lon="5.73208">
        <ele>930.3</ele>
        <time>2024-04-21T13:21:19Z</time>
      </trkpt>
      <trkpt lat="44.24409" lon="5.73207">
        <ele>930.2</ele>
        <time>2024-04-21T13:21:08Z</time>
      </trkpt>
      <trkpt lat="44.24412" lon="5.73209">
        <ele>930.5</ele>
        <time>2024-04-21T13:21:04Z</time>
      </trkpt>
      <trkpt lat="44.24415" lon="5.73212">
        <ele>930.9</ele>
        <time>2024-04-21T13:21:01Z</time>
      </trkpt>
      <trkpt lat="44.24418" lon="5.73213">
        <ele>930.8</ele>
        <time>2024-04-21T13:20:58Z</time>
      </trkpt>
      <trkpt lat="44.24421" lon="5.73215">
        <ele>930.6</ele>
        <time>2024-04-21T13:20:55Z</time>
      </trkpt>
      <trkpt lat="44.24424" lon="5.73214">
        <ele>930.1</ele>
        <time>2024-04-21T13:20:52Z</time>
      </trkpt>
      <trkpt lat="44.24425" lon="5.7321">
        <ele>929.7</ele>
        <time>2024-04-21T13:20:23Z</time>
      </trkpt>
      <trkpt lat="44.24428" lon="5.73209">
        <ele>929.3</ele>
        <time>2024-04-21T13:20:20Z</time>
      </trkpt>
      <trkpt lat="44.24431" lon="5.73207">
        <ele>928.9</ele>
        <time>2024-04-21T13:16:45Z</time>
      </trkpt>
      <trkpt lat="44.24431" lon="5.73205">
        <ele>928.8</ele>
        <time>2024-04-21T13:10:50Z</time>
        <extensions>
          <visugpx:TrkExtension xmlns:visugpx="https://www.visugpx.com/editgpx/">
            <visugpx:node>1</visugpx:node>
            </visugpx:TrkExtension>
        </extensions>
      </trkpt>
    </trkseg>
  </trk>
</gpx>